Time;durP1;ratioP1;P1;durP2;ratioP2;P2;SDS_P1;SDS_P2;PMS_P1;PMS_P2;Temp;Humidity;BMP_temperature;BMP_pressure;BME280_temperature;BME280_humidity;BME280_pressure;Samples;Min_cycle;Max_cycle;Signal;HPM_P1;HPM_P2
2022/10/20 03:29:49;;;;;;;16.75;11.20;;;16.50;93.20;;;;;;4590430;19;20074;-27
2022/10/20 06:28:42;;;;;;;18.75;14.13;;;16.90;91.40;;;;;;4594036;19;19990;-29
2022/10/20 06:33:05;;;;;;;19.05;13.20;;;16.90;91.60;;;;;;4593165;19;20377;-28
2022/10/20 06:42:56;;;;;;;24.42;16.58;;;16.80;92.10;;;;;;4592661;19;20035;-28
2022/10/20 06:49:53;;;;;;;19.45;15.52;;;16.90;92.40;;;;;;4592909;19;20308;-29
2022/10/20 06:55:07;;;;;;;21.27;17.63;;;16.90;92.60;;;;;;4591480;19;20010;-28
2022/10/20 06:57:31;;;;;;;23.13;17.65;;;16.90;92.80;;;;;;4591364;19;20503;-28
2022/10/20 06:59:56;;;;;;;24.25;18.70;;;16.90;93.00;;;;;;4590016;19;20039;-28
2022/10/20 07:10:37;;;;;;;26.08;18.10;;;16.90;93.50;;;;;;4593266;19;20070;-28
2022/10/20 07:47:41;;;;;;;18.55;14.75;;;16.90;95.20;;;;;;4591127;19;19999;-26
2022/10/20 07:49:12;;;;;;;17.05;14.63;;;16.90;95.30;;;;;;4592225;19;20018;-26
2022/10/20 07:50:43;;;;;;;17.30;14.70;;;16.90;95.40;;;;;;4591329;19;20027;-27
2022/10/20 07:52:15;;;;;;;20.17;14.63;;;16.90;95.40;;;;;;4592130;19;20007;-27
2022/10/20 07:53:47;;;;;;;18.00;14.40;;;16.90;95.50;;;;;;4590582;19;20368;-27
2022/10/20 07:55:20;;;;;;;19.75;15.30;;;16.90;95.60;;;;;;4591299;19;20010;-27
2022/10/20 07:56:51;;;;;;;19.35;14.20;;;16.90;95.80;;;;;;4590014;19;20011;-26
2022/10/20 07:58:28;;;;;;;16.98;14.25;;;16.90;95.80;;;;;;4591492;19;20021;-26
2022/10/20 08:00:00;;;;;;;16.42;13.75;;;16.90;95.90;;;;;;4591355;19;20490;-27
2022/10/20 08:01:31;;;;;;;18.15;14.52;;;16.90;96.00;;;;;;4592245;19;20015;-27
2022/10/20 08:03:03;;;;;;;16.48;13.77;;;16.90;96.00;;;;;;4592705;19;20042;-27
2022/10/20 08:04:36;;;;;;;16.40;13.00;;;16.90;96.00;;;;;;4590473;19;20522;-27
2022/10/20 08:06:19;;;;;;;17.92;14.07;;;16.90;96.10;;;;;;4589955;19;20070;-27
2022/10/20 08:07:53;;;;;;;16.25;11.95;;;16.90;96.10;;;;;;4591225;19;20020;-27
2022/10/20 08:09:26;;;;;;;16.55;12.43;;;16.90;96.20;;;;;;4589566;19;19999;-27
2022/10/20 08:10:58;;;;;;;14.35;11.73;;;16.90;96.30;;;;;;4589201;19;20425;-26
2022/10/20 08:12:29;;;;;;;;;;;15.30;97.20;;;;;;4588662;19;20006;-28
2022/10/20 08:14:00;;;;;;;15.90;13.27;;;13.80;99.40;;;;;;4589260;19;19943;-28
2022/10/20 08:15:32;;;;;;;17.58;14.82;;;13.00;99.90;;;;;;4589793;19;20041;-27
2022/10/20 08:17:04;;;;;;;21.90;17.98;;;12.70;99.90;;;;;;4588941;19;20014;-27
2022/10/20 08:18:35;;;;;;;19.87;16.80;;;12.50;99.90;;;;;;4588810;19;20019;-27
2022/10/20 08:20:07;;;;;;;20.55;16.98;;;12.40;99.90;;;;;;4588373;19;20465;-27
2022/10/20 08:21:39;;;;;;;20.90;17.27;;;12.30;99.90;;;;;;4589081;19;20007;-27
2022/10/20 08:23:11;;;;;;;20.40;16.92;;;12.30;99.90;;;;;;4588966;19;20469;-27
2022/10/20 08:24:42;;;;;;;23.30;17.77;;;12.20;99.90;;;;;;4589047;19;20011;-28
2022/10/20 08:26:21;;;;;;;22.35;17.23;;;12.20;99.90;;;;;;4589495;19;20578;-27
2022/10/20 08:27:52;;;;;;;20.80;16.50;;;12.20;99.90;;;;;;4591254;19;20400;-28
2022/10/20 08:29:23;;;;;;;20.35;15.43;;;12.20;99.90;;;;;;4591160;19;20826;-26
2022/10/20 08:30:55;;;;;;;16.95;13.93;;;12.20;99.90;;;;;;4589763;19;20023;-28
2022/10/20 08:32:26;;;;;;;14.95;12.52;;;12.20;99.90;;;;;;4590831;19;20352;-27
2022/10/20 08:33:58;;;;;;;14.77;10.98;;;12.20;99.90;;;;;;4590431;19;20018;-27
2022/10/20 08:35:30;;;;;;;17.47;10.60;;;12.40;99.90;;;;;;4590474;19;20432;-27
2022/10/20 08:37:01;;;;;;;13.70;9.23;;;13.20;99.90;;;;;;4589927;19;20491;-28
2022/10/20 08:38:32;;;;;;;11.73;8.82;;;13.90;99.90;;;;;;4590248;19;20017;-28
2022/10/20 08:40:04;;;;;;;14.38;9.48;;;14.40;99.90;;;;;;4588440;19;20003;-27
2022/10/20 08:41:38;;;;;;;13.30;9.20;;;14.70;99.90;;;;;;4588752;19;20038;-28
2022/10/20 08:43:18;;;;;;;14.63;10.03;;;15.00;99.90;;;;;;4588251;19;20519;-28
2022/10/20 08:44:50;;;;;;;13.73;9.63;;;15.20;99.90;;;;;;4588810;19;20007;-28
2022/10/20 08:46:30;;;;;;;12.02;9.35;;;15.30;99.90;;;;;;4589073;19;20006;-27
2022/10/20 08:48:01;;;;;;;12.93;9.20;;;15.40;99.90;;;;;;4588865;19;20543;-27
2022/10/20 08:49:33;;;;;;;14.47;9.70;;;15.50;99.80;;;;;;4587998;19;20006;-27
2022/10/20 08:51:04;;;;;;;13.02;9.23;;;15.60;99.80;;;;;;4588733;19;19999;-28
2022/10/20 08:52:37;;;;;;;12.73;10.32;;;15.70;99.80;;;;;;4588725;19;20025;-26
2022/10/20 08:54:13;;;;;;;12.27;9.87;;;15.80;99.90;;;;;;4588042;19;20014;-27
2022/10/20 08:55:44;;;;;;;12.15;9.70;;;15.90;99.90;;;;;;4588465;19;20018;-26
2022/10/20 08:57:22;;;;;;;11.40;9.55;;;15.90;99.90;;;;;;4588333;19;20415;-26
2022/10/20 08:58:53;;;;;;;12.70;8.87;;;16.00;99.90;;;;;;4588537;19;20022;-26
2022/10/20 09:00:25;;;;;;;;;;;16.00;99.90;;;;;;4588691;19;20014;-26
2022/10/20 09:01:57;;;;;;;12.02;8.32;;;16.10;99.90;;;;;;4587920;19;19919;-27
2022/10/20 09:03:29;;;;;;;13.48;8.95;;;16.10;99.90;;;;;;4588037;19;20035;-27
2022/10/20 09:05:03;;;;;;;11.60;8.55;;;16.10;99.90;;;;;;4588300;19;20010;-26
2022/10/20 09:06:34;;;;;;;11.98;7.72;;;16.20;99.90;;;;;;4587285;19;20409;-27
2022/10/20 09:08:06;;;;;;;11.35;8.35;;;16.20;99.90;;;;;;4590134;19;20017;-27
2022/10/20 09:09:40;;;;;;;11.85;7.47;;;16.20;99.90;;;;;;4588786;19;20002;-27
2022/10/20 10:08:43;;;;;;;4.53;2.70;;;16.80;99.90;;;;;;4592152;19;20013;-26
2022/10/20 10:10:17;;;;;;;3.88;2.00;;;16.80;99.90;;;;;;4593205;19;20014;-26
2022/10/20 11:16:23;;;;;;;2.58;1.48;;;16.90;99.50;;;;;;4589490;19;20006;-27
2022/10/20 11:17:57;;;;;;;4.03;2.00;;;16.90;99.70;;;;;;4591907;19;20018;-27
2022/10/20 11:19:53;;;;;;;3.40;2.00;;;16.90;99.80;;;;;;4592527;19;20006;-27
2022/10/20 11:21:50;;;;;;;4.10;2.20;;;16.90;99.70;;;;;;4591942;19;20046;-27
2022/10/20 11:26:02;;;;;;;3.15;1.65;;;16.90;99.50;;;;;;4592747;19;20018;-27
2022/10/20 11:27:34;;;;;;;3.53;1.52;;;16.90;99.30;;;;;;4591838;19;20017;-27
2022/10/20 11:29:10;;;;;;;5.32;1.95;;;16.90;99.00;;;;;;4591480;19;20081;-27
2022/10/20 11:30:42;;;;;;;5.30;1.67;;;16.90;98.90;;;;;;4591303;19;20018;-27
2022/10/20 11:32:13;;;;;;;;;;;16.90;98.80;;;;;;4592057;19;20010;-27
2022/10/20 11:33:46;;;;;;;4.32;1.58;;;16.90;98.80;;;;;;4592408;19;19914;-27
2022/10/20 11:38:01;;;;;;;4.65;1.90;;;16.90;99.10;;;;;;4590019;19;20015;-27
2022/10/20 11:39:47;;;;;;;4.65;1.92;;;16.90;99.20;;;;;;4590913;19;20023;-27
2022/10/20 11:41:38;;;;;;;4.78;2.13;;;16.90;99.30;;;;;;4588838;19;20006;-27
2022/10/20 11:43:12;;;;;;;4.43;2.20;;;16.90;99.40;;;;;;4589931;19;20349;-27
2022/10/20 11:44:43;;;;;;;3.33;1.17;;;16.90;99.70;;;;;;4589823;19;20015;-26
2022/10/20 11:46:25;;;;;;;2.45;1.40;;;16.90;99.50;;;;;;4590072;19;20110;-26
2022/10/20 11:48:10;;;;;;;2.58;1.33;;;16.90;99.40;;;;;;4590052;19;20362;-26
2022/10/20 11:49:41;;;;;;;2.78;1.60;;;16.90;99.30;;;;;;4590176;19;20013;-26
2022/10/20 11:51:31;;;;;;;2.63;1.25;;;16.90;99.40;;;;;;4589842;19;20039;-27
2022/10/20 11:53:38;;;;;;;2.00;1.15;;;16.90;99.40;;;;;;4589772;19;20033;-26
2022/10/20 11:55:12;;;;;;;3.08;1.05;;;16.90;99.50;;;;;;4588952;19;20021;-26
2022/10/20 11:59:53;;;;;;;3.55;1.95;;;17.00;99.20;;;;;;4589240;19;20043;-26
2022/10/20 12:01:54;;;;;;;2.58;1.52;;;17.00;99.00;;;;;;4588170;19;20074;-26
2022/10/20 12:04:02;;;;;;;4.70;2.17;;;16.90;99.20;;;;;;4589302;19;20017;-27
2022/10/20 12:06:11;;;;;;;2.83;1.60;;;16.90;99.00;;;;;;4589100;19;20476;-27
2022/10/20 12:08:00;;;;;;;5.25;1.90;;;16.90;98.90;;;;;;4589488;19;20409;-27
2022/10/20 12:09:54;;;;;;;2.80;1.45;;;17.00;98.80;;;;;;4589653;19;20078;-26
2022/10/20 12:11:41;;;;;;;3.83;1.50;;;17.00;98.60;;;;;;4589943;19;20500;-26
2022/10/20 12:13:44;;;;;;;2.65;1.50;;;17.00;98.60;;;;;;4589245;19;20018;-27
2022/10/20 12:15:49;;;;;;;2.75;1.45;;;17.10;98.70;;;;;;4589260;19;20330;-26
2022/10/20 12:17:34;;;;;;;3.15;1.63;;;17.10;98.80;;;;;;4589806;19;20011;-27
2022/10/20 12:19:25;;;;;;;3.63;1.77;;;17.10;98.70;;;;;;4590463;19;20373;-27
2022/10/20 12:21:16;;;;;;;3.25;2.10;;;17.10;98.70;;;;;;4590272;19;20022;-26
2022/10/20 12:22:49;;;;;;;3.88;2.08;;;17.10;98.80;;;;;;4588182;19;20081;-27
2022/10/20 12:24:39;;;;;;;5.38;2.90;;;17.10;99.20;;;;;;4588157;19;20016;-27
2022/10/20 12:26:28;;;;;;;5.32;3.33;;;17.10;99.40;;;;;;4587215;19;20024;-27
2022/10/20 12:28:21;;;;;;;6.43;3.33;;;17.10;99.70;;;;;;4588401;19;20011;-27
2022/10/20 12:29:54;;;;;;;6.65;3.05;;;17.00;99.80;;;;;;4589388;19;20021;-27
2022/10/20 12:32:03;;;;;;;5.38;3.70;;;17.00;99.70;;;;;;4591362;19;20110;-27
2022/10/20 12:33:53;;;;;;;8.90;6.20;;;17.00;99.70;;;;;;4590917;19;20490;-26
2022/10/20 12:35:56;;;;;;;9.67;6.67;;;15.40;99.90;;;;;;4590711;19;20037;-26
2022/10/20 12:37:32;;;;;;;8.95;6.00;;;14.60;99.90;;;;;;4589835;19;20006;-26
2022/10/20 12:39:11;;;;;;;9.03;5.97;;;14.40;99.90;;;;;;4588249;19;20015;-27
2022/10/20 12:40:50;;;;;;;8.67;5.97;;;14.30;99.90;;;;;;4588400;19;20014;-28
2022/10/20 12:42:28;;;;;;;9.57;6.23;;;14.30;99.90;;;;;;4588812;19;20014;-28
2022/10/20 12:44:04;;;;;;;8.17;6.20;;;14.30;99.90;;;;;;4586692;19;20014;-28
2022/10/20 12:45:39;;;;;;;8.37;6.03;;;14.30;99.90;;;;;;4588875;19;20091;-28
2022/10/20 12:47:23;;;;;;;10.97;6.67;;;14.40;99.90;;;;;;4589342;19;20022;-28
2022/10/20 12:48:58;;;;;;;9.50;6.63;;;14.40;99.90;;;;;;4588647;19;20072;-28
2022/10/20 12:50:42;;;;;;;10.43;5.87;;;14.40;99.90;;;;;;4589696;19;20009;-28
2022/10/20 12:54:22;;;;;;;7.17;4.37;;;14.40;99.90;;;;;;4588662;19;20032;-28
2022/10/20 12:55:59;;;;;;;6.13;4.10;;;14.40;99.90;;;;;;4588050;19;20453;-28
2022/10/20 12:57:40;;;;;;;6.90;4.63;;;14.40;99.90;;;;;;4588705;19;20006;-28
2022/10/20 12:59:29;;;;;;;7.57;5.00;;;14.30;99.90;;;;;;4588711;19;20022;-28
2022/10/20 13:01:01;;;;;;;7.10;4.93;;;14.30;99.90;;;;;;4588225;19;19999;-28
2022/10/20 13:02:46;;;;;;;6.97;5.20;;;14.30;99.90;;;;;;4588735;19;20119;-28
2022/10/20 13:04:43;;;;;;;;;;;14.30;99.90;;;;;;4588779;19;20018;-28
2022/10/20 13:06:21;;;;;;;16.93;9.77;;;14.30;99.90;;;;;;4586326;19;19935;-27
2022/10/20 13:08:33;;;;;;;21.60;13.90;;;14.40;99.90;;;;;;4587615;19;20021;-28
2022/10/20 13:10:43;;;;;;;19.23;13.07;;;14.40;99.90;;;;;;4587680;19;20021;-28
2022/10/20 13:12:25;;;;;;;14.23;9.70;;;14.40;99.90;;;;;;4587708;19;20010;-28
2022/10/20 13:14:26;;;;;;;7.23;4.50;;;14.40;99.90;;;;;;4588260;19;20047;-28
2022/10/20 13:16:02;;;;;;;9.33;5.93;;;14.40;99.90;;;;;;4586351;19;20030;-28
2022/10/20 13:18:11;;;;;;;9.83;5.87;;;14.40;99.90;;;;;;4587415;19;20077;-28
2022/10/20 13:19:56;;;;;;;7.43;4.87;;;14.40;99.90;;;;;;4587736;19;20018;-28
2022/10/20 13:22:10;;;;;;;11.37;7.83;;;14.40;99.90;;;;;;4586943;19;20574;-28
2022/10/20 13:23:45;;;;;;;3.40;2.10;;;14.50;99.90;;;;;;4587789;19;20070;-28
2022/10/20 13:25:35;;;;;;;3.73;2.30;;;14.50;99.90;;;;;;4586296;19;20031;-28
2022/10/20 13:27:08;;;;;;;5.40;3.47;;;14.50;99.90;;;;;;4587597;19;20043;-28
2022/10/20 13:28:45;;;;;;;5.07;3.43;;;14.50;99.90;;;;;;4587518;19;20021;-28
2022/10/20 13:30:21;;;;;;;5.07;2.57;;;14.50;99.90;;;;;;4587918;19;20019;-28
2022/10/20 13:32:16;;;;;;;5.50;3.80;;;14.60;99.90;;;;;;4587435;19;20049;-28
2022/10/20 13:34:09;;;;;;;6.37;4.13;;;14.60;99.90;;;;;;4587404;19;20022;-28
2022/10/20 13:36:09;;;;;;;5.93;3.80;;;14.70;99.90;;;;;;4587086;19;20011;-28
2022/10/20 13:37:54;;;;;;;5.93;5.10;;;14.70;99.90;;;;;;4585769;19;20116;-28
2022/10/20 13:40:01;;;;;;;5.97;5.37;;;14.70;99.90;;;;;;4587695;19;20010;-27
2022/10/20 13:41:57;;;;;;;5.33;4.00;;;14.70;99.90;;;;;;4586933;19;20011;-28
2022/10/20 13:43:35;;;;;;;6.07;5.37;;;14.70;99.90;;;;;;4587419;19;20043;-28
2022/10/20 13:45:11;;;;;;;7.37;6.30;;;14.80;99.90;;;;;;4587069;19;20015;-28
2022/10/20 13:47:17;;;;;;;6.97;5.77;;;14.80;99.90;;;;;;4587961;19;20010;-28
2022/10/20 13:49:30;;;;;;;6.13;5.23;;;14.70;99.90;;;;;;4587466;19;20003;-28
2022/10/20 13:51:22;;;;;;;7.25;5.57;;;14.70;99.90;;;;;;4587456;19;20006;-27
2022/10/20 13:53:27;;;;;;;6.43;5.57;;;14.70;99.90;;;;;;4610566;19;20797;-30
2022/10/20 13:54:59;;;;;;;6.23;4.47;;;14.70;99.90;;;;;;4611921;19;20062;-30
2022/10/20 13:56:32;;;;;;;5.45;3.90;;;14.60;99.90;;;;;;4611133;19;20022;-30
2022/10/20 13:58:06;;;;;;;3.87;2.80;;;14.60;99.90;;;;;;4612246;19;20019;-32
2022/10/20 13:59:38;;;;;;;6.77;4.80;;;14.60;99.90;;;;;;4610853;19;20014;-30
2022/10/20 14:01:12;;;;;;;4.10;2.42;;;14.60;99.90;;;;;;4611611;19;20019;-34
2022/10/20 14:03:11;;;;;;;5.23;2.80;;;14.50;99.90;;;;;;4611856;19;20018;-31
2022/10/20 14:04:42;;;;;;;4.50;2.80;;;14.50;99.90;;;;;;4609764;19;20034;-30
2022/10/20 14:06:35;;;;;;;5.75;3.58;;;14.50;99.90;;;;;;4608681;19;20010;-29
2022/10/20 14:08:08;;;;;;;6.10;3.97;;;14.50;99.90;;;;;;4609260;19;20006;-30
2022/10/20 14:09:39;;;;;;;5.60;2.67;;;14.40;99.90;;;;;;4610433;19;20006;-28
2022/10/20 14:11:13;;;;;;;5.97;3.03;;;14.40;99.90;;;;;;4609448;19;20017;-30
2022/10/20 14:12:45;;;;;;;;;;;14.40;99.90;;;;;;4609947;19;20488;-29
2022/10/20 14:14:22;;;;;;;3.37;2.07;;;14.40;99.90;;;;;;4611363;19;20353;-31
2022/10/20 14:16:01;;;;;;;3.53;2.30;;;14.40;99.90;;;;;;4611885;19;20037;-30
2022/10/20 14:17:34;;;;;;;3.83;2.93;;;14.40;99.90;;;;;;4611656;19;20013;-30
2022/10/20 14:19:14;;;;;;;4.07;2.47;;;14.40;99.90;;;;;;4611212;19;20484;-31
2022/10/20 14:20:56;;;;;;;3.87;2.50;;;14.40;99.90;;;;;;4611127;19;20406;-30
2022/10/20 14:22:31;;;;;;;2.70;1.83;;;14.40;99.90;;;;;;4610925;19;20010;-29
2022/10/20 14:24:04;;;;;;;3.20;1.57;;;14.40;99.90;;;;;;4611977;19;20479;-31
2022/10/20 14:25:37;;;;;;;3.00;1.50;;;14.60;99.90;;;;;;4610461;19;20014;-31
2022/10/20 14:27:19;;;;;;;3.53;1.60;;;14.90;99.90;;;;;;4610087;19;20062;-28
2022/10/20 14:28:50;;;;;;;4.43;1.80;;;15.20;99.90;;;;;;4610022;19;20031;-29
2022/10/20 14:30:22;;;;;;;3.88;2.50;;;15.40;99.90;;;;;;4609658;19;20461;-30
2022/10/20 14:31:54;;;;;;;3.63;1.80;;;15.50;99.90;;;;;;4608468;19;20414;-32
2022/10/20 14:33:25;;;;;;;3.00;1.55;;;15.70;99.90;;;;;;4609108;19;20468;-31
2022/10/20 14:35:17;;;;;;;4.40;1.90;;;15.80;99.90;;;;;;4608764;19;20051;-29
2022/10/20 14:36:52;;;;;;;2.90;1.75;;;15.80;99.90;;;;;;4609000;19;20374;-30
2022/10/20 14:38:33;;;;;;;5.32;1.80;;;15.90;99.90;;;;;;4611481;19;20110;-30
2022/10/20 14:40:29;;;;;;;4.60;2.58;;;16.00;99.90;;;;;;4608973;19;20042;-29
2022/10/20 14:42:20;;;;;;;6.57;4.45;;;16.00;99.90;;;;;;4608543;19;20072;-29
2022/10/20 14:44:08;;;;;;;7.90;5.70;;;16.10;99.90;;;;;;4609140;19;20017;-29
2022/10/20 14:45:58;;;;;;;6.72;5.10;;;16.10;99.90;;;;;;4608424;19;20015;-30
2022/10/20 14:47:37;;;;;;;7.10;5.30;;;16.20;99.90;;;;;;4608484;19;20029;-28
2022/10/20 14:49:29;;;;;;;9.57;6.30;;;16.20;99.90;;;;;;4609726;19;20022;-28
2022/10/20 14:51:00;;;;;;;10.13;6.47;;;16.20;99.90;;;;;;4609473;19;20014;-31
2022/10/20 14:52:34;;;;;;;10.50;6.68;;;16.30;99.90;;;;;;4607417;19;20010;-30
2022/10/20 14:54:15;;;;;;;12.40;8.82;;;16.30;99.90;;;;;;4608829;19;20011;-28
2022/10/20 14:55:47;;;;;;;12.52;8.98;;;16.30;99.90;;;;;;4608649;19;20392;-30
2022/10/20 14:57:27;;;;;;;8.20;6.05;;;16.30;99.90;;;;;;4608899;19;20015;-30
2022/10/20 14:58:59;;;;;;;6.40;4.40;;;16.40;99.90;;;;;;4608582;19;20011;-29
2022/10/20 15:00:34;;;;;;;8.30;6.07;;;16.40;99.90;;;;;;4608623;19;20010;-28
2022/10/20 15:02:12;;;;;;;6.55;4.70;;;16.40;99.90;;;;;;4608953;19;20537;-31
2022/10/20 15:03:43;;;;;;;5.28;4.28;;;16.40;99.90;;;;;;4599965;19;19998;-30
2022/10/20 15:05:25;;;;;;;7.43;4.03;;;16.40;99.90;;;;;;4590689;19;20516;-32
2022/10/20 15:12:36;;;;;;;5.95;4.20;;;16.50;99.90;;;;;;4588772;19;19986;-29
2022/10/20 15:14:12;;;;;;;8.35;4.53;;;16.50;99.90;;;;;;4590920;19;20002;-30
2022/10/20 15:18:27;;;;;;;7.78;5.00;;;16.50;99.90;;;;;;4590032;19;19998;-31
2022/10/20 15:20:28;;;;;;;8.50;6.03;;;16.50;99.90;;;;;;4590440;19;20094;-29
2022/10/20 15:22:07;;;;;;;8.48;6.47;;;16.50;99.90;;;;;;4592277;19;20358;-29
2022/10/20 15:23:44;;;;;;;9.77;6.35;;;16.50;99.90;;;;;;4592982;19;20018;-29
2022/10/20 15:25:17;;;;;;;11.75;7.43;;;16.50;99.90;;;;;;4592203;19;20006;-30
2022/10/20 15:27:21;;;;;;;10.80;6.85;;;16.60;99.90;;;;;;4591070;19;20411;-29
2022/10/20 15:28:52;;;;;;;11.73;7.15;;;16.60;99.90;;;;;;4592739;19;20043;-31
2022/10/20 15:30:28;;;;;;;11.30;8.32;;;16.60;99.90;;;;;;4593069;19;20007;-31
2022/10/20 15:31:59;;;;;;;13.88;9.98;;;16.60;99.90;;;;;;4592577;19;20011;-29
2022/10/20 15:33:31;;;;;;;18.15;12.80;;;16.60;99.90;;;;;;4591502;19;20087;-29
2022/10/20 15:35:10;;;;;;;18.40;12.77;;;16.60;99.90;;;;;;4592913;19;20007;-30
2022/10/20 15:36:41;;;;;;;22.10;15.02;;;16.60;99.90;;;;;;4591832;19;20023;-29
2022/10/20 15:38:13;;;;;;;24.02;16.20;;;16.60;99.90;;;;;;4591366;19;20344;-30
2022/10/20 15:39:45;;;;;;;27.90;19.38;;;16.60;99.90;;;;;;4591152;19;20018;-29
2022/10/20 15:41:23;;;;;;;29.38;20.02;;;16.60;99.90;;;;;;4591921;19;20018;-30
2022/10/20 15:42:55;;;;;;;31.65;22.65;;;16.60;99.90;;;;;;4592241;19;20074;-30
2022/10/20 15:44:31;;;;;;;28.17;20.77;;;16.70;99.90;;;;;;4592346;19;20049;-29
2022/10/20 15:46:12;;;;;;;30.70;24.02;;;16.70;99.90;;;;;;4591678;19;20017;-30
2022/10/20 15:47:44;;;;;;;31.92;24.15;;;16.80;99.90;;;;;;4589995;19;20014;-29
2022/10/20 15:49:16;;;;;;;;;;;16.90;99.90;;;;;;4591183;19;20097;-29
2022/10/20 15:50:48;;;;;;;34.53;26.73;;;17.00;99.90;;;;;;4590297;19;19914;-29
2022/10/20 15:52:20;;;;;;;34.58;26.40;;;17.00;99.90;;;;;;4588619;19;20515;-30
2022/10/20 15:53:52;;;;;;;37.22;28.13;;;17.00;99.90;;;;;;4590164;19;20011;-29
2022/10/20 15:55:31;;;;;;;37.22;27.73;;;17.10;99.90;;;;;;4589924;19;20013;-30
2022/10/20 15:57:05;;;;;;;45.67;33.78;;;17.20;99.70;;;;;;4590382;19;20023;-28
2022/10/20 15:58:36;;;;;;;42.78;31.77;;;17.20;99.70;;;;;;4590177;19;20515;-29
2022/10/20 16:00:08;;;;;;;36.78;28.58;;;17.20;99.50;;;;;;4590055;19;20490;-32
2022/10/20 16:01:39;;;;;;;38.47;29.45;;;17.20;99.70;;;;;;4590204;19;20361;-29
2022/10/20 16:03:17;;;;;;;38.55;28.77;;;17.20;99.60;;;;;;4589773;19;20359;-31
2022/10/20 16:04:48;;;;;;;38.72;28.25;;;17.20;99.60;;;;;;4589964;19;20014;-29
2022/10/20 16:06:21;;;;;;;36.22;28.48;;;17.10;99.70;;;;;;4589823;19;20028;-31
2022/10/20 16:07:53;;;;;;;38.22;27.27;;;17.10;99.70;;;;;;4589263;19;20018;-29
2022/10/20 16:09:24;;;;;;;49.45;35.75;;;17.10;99.60;;;;;;4590003;19;20010;-31
2022/10/20 16:10:55;;;;;;;53.85;39.67;;;17.10;99.50;;;;;;4590357;19;20017;-28
2022/10/20 16:12:27;;;;;;;;;;;17.10;99.50;;;;;;4590572;19;20018;-30
2022/10/20 16:13:58;;;;;;;49.15;35.15;;;17.00;99.50;;;;;;4591628;19;19925;-30
2022/10/20 16:15:29;;;;;;;50.63;35.90;;;17.00;99.60;;;;;;4589968;19;20013;-29
2022/10/20 16:17:00;;;;;;;44.08;31.75;;;17.00;99.60;;;;;;4591980;19;20349;-32
2022/10/20 16:18:31;;;;;;;39.45;29.60;;;17.00;99.70;;;;;;4592469;19;20042;-32
2022/10/20 16:20:04;;;;;;;39.15;30.17;;;17.00;99.70;;;;;;4590885;19;20037;-29
2022/10/20 16:21:35;;;;;;;36.17;30.23;;;17.00;99.70;;;;;;4592026;19;20010;-27
2022/10/20 16:23:06;;;;;;;38.08;29.45;;;17.00;99.70;;;;;;4590536;19;20015;-29
2022/10/20 16:24:40;;;;;;;33.47;27.17;;;17.00;99.70;;;;;;4587256;19;20006;-31
2022/10/20 16:26:14;;;;;;;35.03;27.80;;;17.00;99.70;;;;;;4590868;19;20022;-29
2022/10/20 16:27:47;;;;;;;32.90;25.88;;;17.00;99.60;;;;;;4591030;19;20445;-28
2022/10/20 16:29:28;;;;;;;36.33;27.58;;;17.00;99.60;;;;;;4591128;19;20014;-30
2022/10/20 16:31:06;;;;;;;35.78;26.73;;;17.10;99.70;;;;;;4591171;19;20021;-32
2022/10/20 16:32:41;;;;;;;38.00;29.15;;;17.10;99.40;;;;;;4590022;19;20021;-32
2022/10/20 16:34:13;;;;;;;44.30;32.53;;;17.20;99.20;;;;;;4590341;19;20368;-32
2022/10/20 16:35:44;;;;;;;52.58;35.50;;;17.20;99.10;;;;;;4591654;19;20483;-30
2022/10/20 16:37:15;;;;;;;54.20;36.88;;;17.30;99.00;;;;;;4589803;19;20021;-30
2022/10/20 16:38:46;;;;;;;55.15;39.28;;;17.20;98.90;;;;;;4590831;19;20006;-31
2022/10/20 16:40:18;;;;;;;61.17;40.08;;;17.20;98.90;;;;;;4589511;19;20496;-30
2022/10/20 16:41:49;;;;;;;;;;;17.20;98.90;;;;;;4593301;19;20019;-31
2022/10/20 16:43:20;;;;;;;94.37;53.20;;;17.20;98.90;;;;;;4592368;19;19922;-31
2022/10/20 16:44:51;;;;;;;134.30;72.85;;;17.20;98.90;;;;;;4591032;19;20465;-32
2022/10/20 16:46:22;;;;;;;196.10;103.65;;;17.20;98.90;;;;;;4590858;19;20017;-30
2022/10/20 16:47:54;;;;;;;205.10;108.13;;;17.20;98.80;;;;;;4592270;19;20011;-30
2022/10/20 16:49:25;;;;;;;202.40;111.93;;;17.20;98.90;;;;;;4590379;19;20022;-30
2022/10/20 16:50:56;;;;;;;156.57;89.78;;;17.10;98.80;;;;;;4590053;19;20011;-32
2022/10/20 16:52:27;;;;;;;150.18;84.68;;;17.20;98.80;;;;;;4590325;19;20468;-30
2022/10/20 16:53:59;;;;;;;138.10;78.38;;;17.10;98.70;;;;;;4589584;19;20023;-32
2022/10/20 16:55:30;;;;;;;134.75;75.82;;;17.10;98.70;;;;;;4591164;19;20006;-29
2022/10/20 16:57:02;;;;;;;;;;;17.10;98.60;;;;;;4591455;19;20507;-30
2022/10/20 16:58:33;;;;;;;130.18;73.18;;;17.10;98.70;;;;;;4591776;19;19922;-29
2022/10/20 17:00:06;;;;;;;132.18;75.60;;;17.10;98.60;;;;;;4591120;19;20026;-30
2022/10/20 17:01:37;;;;;;;137.25;78.13;;;17.10;98.60;;;;;;4588954;19;20038;-30
2022/10/20 17:03:08;;;;;;;162.45;92.15;;;17.10;98.60;;;;;;4590910;19;20006;-31
2022/10/20 17:04:41;;;;;;;175.40;97.45;;;17.10;98.60;;;;;;4590688;19;20491;-30
2022/10/20 17:06:13;;;;;;;180.40;101.85;;;17.00;98.50;;;;;;4590380;19;20011;-33
2022/10/20 17:07:44;;;;;;;162.30;91.05;;;17.00;98.40;;;;;;4589066;19;20043;-29
2022/10/20 17:09:16;;;;;;;138.95;81.10;;;17.00;98.50;;;;;;4588596;19;20356;-31
2022/10/20 17:10:54;;;;;;;133.10;79.15;;;17.00;98.50;;;;;;4590345;19;20018;-29
2022/10/20 17:12:26;;;;;;;126.03;76.88;;;17.00;98.50;;;;;;4588405;19;20046;-29
2022/10/20 17:13:58;;;;;;;137.23;84.32;;;17.00;98.50;;;;;;4590243;19;20464;-29
2022/10/20 17:15:33;;;;;;;143.30;85.85;;;17.00;98.50;;;;;;4589900;19;20037;-30
2022/10/20 17:17:07;;;;;;;144.32;85.13;;;17.00;98.60;;;;;;4591354;19;20482;-27
2022/10/20 17:18:43;;;;;;;136.05;85.03;;;17.00;98.50;;;;;;4590414;19;20039;-30
2022/10/20 17:20:17;;;;;;;121.50;72.55;;;17.00;98.50;;;;;;4589138;19;20014;-30
2022/10/20 17:21:50;;;;;;;109.78;69.28;;;17.00;98.50;;;;;;4589942;19;20020;-31
2022/10/20 17:23:25;;;;;;;101.35;63.80;;;16.90;98.40;;;;;;4589915;19;20014;-28
2022/10/20 17:24:58;;;;;;;91.30;58.63;;;16.90;98.50;;;;;;4589676;19;20014;-30
2022/10/20 17:26:34;;;;;;;87.20;56.83;;;16.90;98.50;;;;;;4588955;19;20011;-33
2022/10/20 17:28:23;;;;;;;80.60;52.53;;;16.90;98.40;;;;;;4589822;19;20010;-29
2022/10/20 17:30:03;;;;;;;88.47;54.85;;;16.90;98.40;;;;;;4588273;19;20011;-29
2022/10/20 17:31:35;;;;;;;;;;;16.90;98.50;;;;;;4590027;19;20015;-27
2022/10/20 17:33:11;;;;;;;74.43;48.90;;;16.90;98.50;;;;;;4589581;19;19949;-30
2022/10/20 17:34:48;;;;;;;66.32;43.35;;;16.90;98.50;;;;;;4589972;19;20031;-29
2022/10/20 17:36:27;;;;;;;58.05;41.78;;;16.90;98.50;;;;;;4591023;19;20400;-29
2022/10/20 17:37:59;;;;;;;60.83;42.83;;;16.90;98.50;;;;;;4588302;19;20558;-28
2022/10/20 17:39:30;;;;;;;72.47;50.50;;;16.90;98.50;;;;;;4588725;19;20352;-29
2022/10/20 17:41:05;;;;;;;78.93;53.60;;;16.90;98.80;;;;;;4590861;19;20018;-29
2022/10/20 17:42:40;;;;;;;70.15;48.35;;;16.90;98.60;;;;;;4589864;19;20022;-29
2022/10/20 17:44:22;;;;;;;61.65;45.45;;;16.90;98.60;;;;;;4590411;19;20046;-29
2022/10/20 17:45:57;;;;;;;57.10;41.92;;;16.90;98.60;;;;;;4590273;19;20024;-29
2022/10/20 17:47:28;;;;;;;62.53;45.65;;;16.80;98.50;;;;;;4588962;19;20015;-29
2022/10/20 17:49:03;;;;;;;65.70;47.05;;;16.90;98.50;;;;;;4590478;19;20010;-30
2022/10/20 17:50:35;;;;;;;69.70;47.60;;;16.90;98.50;;;;;;4587743;19;20028;-29
2022/10/20 17:52:08;;;;;;;59.03;43.05;;;16.90;98.60;;;;;;4589201;19;20074;-29
2022/10/20 17:53:44;;;;;;;56.58;41.05;;;16.80;98.50;;;;;;4587589;19;20051;-29
2022/10/20 17:55:16;;;;;;;59.00;41.95;;;16.80;98.50;;;;;;4589144;19;20070;-30
2022/10/20 17:56:49;;;;;;;64.60;43.35;;;16.90;98.50;;;;;;4588812;19;20056;-29
2022/10/20 17:58:21;;;;;;;68.57;45.58;;;16.90;98.50;;;;;;4590193;19;20015;-30
2022/10/20 17:59:56;;;;;;;57.97;41.28;;;16.80;98.50;;;;;;4589250;19;20019;-30
2022/10/20 18:01:40;;;;;;;49.97;36.30;;;16.80;98.50;;;;;;4588302;19;20015;-30
2022/10/20 18:03:18;;;;;;;55.90;37.35;;;16.80;98.50;;;;;;4589941;19;20010;-30
2022/10/20 18:05:00;;;;;;;55.47;38.35;;;16.80;98.50;;;;;;4588785;19;20086;-28
2022/10/20 18:06:45;;;;;;;60.67;40.05;;;16.80;98.40;;;;;;4588977;19;20031;-29
2022/10/20 18:08:21;;;;;;;55.72;36.85;;;16.80;98.40;;;;;;4589245;19;20509;-30
2022/10/20 18:09:57;;;;;;;55.00;37.67;;;16.80;98.40;;;;;;4588921;19;20093;-32
2022/10/20 18:11:35;;;;;;;60.30;38.10;;;16.80;98.40;;;;;;4588241;19;20027;-32
2022/10/20 18:13:13;;;;;;;48.72;33.90;;;16.80;98.40;;;;;;4587864;19;20074;-33
2022/10/20 18:14:55;;;;;;;46.65;31.67;;;16.80;98.40;;;;;;4586397;19;20103;-31
2022/10/20 18:16:33;;;;;;;47.42;31.95;;;16.80;98.30;;;;;;4588685;19;20045;-30
2022/10/20 18:18:08;;;;;;;53.85;35.42;;;16.80;98.30;;;;;;4588877;19;20011;-29